Time;durP1;ratioP1;P1;durP2;ratioP2;P2;SDS_P1;SDS_P2;PMS_P1;PMS_P2;Temp;Humidity;BMP_temperature;BMP_pressure;BME280_temperature;BME280_humidity;BME280_pressure;Samples;Min_cycle;Max_cycle;Signal;HPM_P1;HPM_P2
2023/03/20 00:01:54;;;;;;;22.67;11.15;;;;;;;-145.50;100.00;65435.88;4906154;29;20064;-70
2023/03/20 00:04:21;;;;;;;22.83;11.45;;;;;;;-145.50;100.00;65435.88;4924676;29;20060;-70
2023/03/20 00:06:48;;;;;;;21.60;10.35;;;;;;;-145.50;100.00;65435.88;4910881;29;20079;-70
2023/03/20 00:09:16;;;;;;;23.65;10.82;;;;;;;-145.50;100.00;65435.88;4904922;29;20056;-70
2023/03/20 00:11:48;;;;;;;22.77;10.95;;;;;;;-145.50;100.00;65435.88;4910724;29;20059;-70
2023/03/20 00:14:18;;;;;;;22.67;10.20;;;;;;;-145.50;100.00;65435.88;4902669;29;20064;-70
2023/03/20 00:16:46;;;;;;;17.42;10.23;;;;;;;-145.50;100.00;65435.88;4897598;29;20659;-70
2023/03/20 00:19:17;;;;;;;18.42;10.25;;;;;;;-145.50;100.00;65435.88;4914405;29;20062;-72
2023/03/20 00:21:46;;;;;;;21.00;9.70;;;;;;;-145.50;100.00;65435.88;4910649;29;20184;-71
2023/03/20 00:24:14;;;;;;;19.50;9.27;;;;;;;-145.50;100.00;65435.88;4908083;29;20051;-71
2023/03/20 00:26:42;;;;;;;18.15;9.40;;;;;;;-145.50;100.00;65435.88;4904572;29;20058;-71
2023/03/20 00:29:20;;;;;;;16.55;9.90;;;;;;;-145.50;100.00;65435.88;4905638;29;20067;-71
2023/03/20 00:31:47;;;;;;;18.42;9.98;;;;;;;-145.50;100.00;65435.88;4902228;29;20058;-71
2023/03/20 00:34:16;;;;;;;16.38;9.70;;;;;;;-145.50;100.00;65435.88;4910315;29;20055;-71
2023/03/20 00:36:43;;;;;;;17.45;9.57;;;;;;;-145.50;100.00;65435.88;4919196;29;20479;-72
2023/03/20 00:39:09;;;;;;;16.73;9.25;;;;;;;-145.50;100.00;65435.88;4909059;29;20525;-72
2023/03/20 00:41:56;;;;;;;18.50;9.75;;;;;;;-145.50;100.00;65435.88;4923729;29;20481;-71
2023/03/20 00:44:34;;;;;;;16.15;9.80;;;;;;;-145.50;100.00;65435.88;4900161;29;20048;-76
2023/03/20 00:47:05;;;;;;;21.38;10.57;;;;;;;-145.50;100.00;65435.88;4923444;29;20063;-71
2023/03/20 00:49:34;;;;;;;17.42;9.65;;;;;;;-145.50;100.00;65435.88;4902639;29;20160;-71
2023/03/20 00:52:02;;;;;;;;;;;;;;;-145.50;100.00;65435.88;4907147;29;20052;-71
2023/03/20 00:54:29;;;;;;;18.20;10.23;;;;;;;-145.50;100.00;65435.88;4921156;29;19923;-71
2023/03/20 00:57:26;;;;;;;19.60;10.90;;;;;;;-145.50;100.00;65435.88;4909531;29;20171;-71
2023/03/20 01:00:01;;;;;;;17.23;10.18;;;;;;;-145.50;100.00;65435.88;4901656;29;20131;-71
2023/03/20 01:02:29;;;;;;;19.55;10.93;;;;;;;-145.50;100.00;65435.88;4911431;29;20044;-71
2023/03/20 01:04:57;;;;;;;20.27;10.13;;;;;;;-145.50;100.00;65435.88;4911768;29;20063;-71
2023/03/20 01:07:23;;;;;;;21.23;10.13;;;;;;;-145.50;100.00;65435.88;4899475;29;20426;-71
2023/03/20 01:09:50;;;;;;;20.05;10.70;;;;;;;-145.50;100.00;65435.88;4909352;29;20061;-71
2023/03/20 01:12:16;;;;;;;21.00;11.88;;;;;;;-145.50;100.00;65435.88;4900859;29;20056;-70
2023/03/20 01:14:43;;;;;;;24.75;12.52;;;;;;;-145.50;100.00;65435.88;4910533;29;20059;-70
2023/03/20 01:17:19;;;;;;;19.70;12.02;;;;;;;-145.50;100.00;65435.88;4902715;29;20165;-71
2023/03/20 01:19:46;;;;;;;23.23;13.68;;;;;;;-145.50;100.00;65435.88;4908233;29;20426;-71
2023/03/20 01:22:13;;;;;;;24.33;15.02;;;;;;;-145.50;100.00;65435.88;4908399;29;20084;-71
2023/03/20 01:24:40;;;;;;;22.85;14.70;;;;;;;-145.50;100.00;65435.88;4900411;29;20818;-71
2023/03/20 01:27:14;;;;;;;25.60;14.95;;;;;;;-145.50;100.00;65435.88;4910700;29;20389;-71
2023/03/20 01:29:41;;;;;;;23.92;13.93;;;;;;;-145.50;100.00;65435.88;4897645;29;20063;-71
2023/03/20 01:32:18;;;;;;;22.38;13.20;;;;;;;-145.50;100.00;65435.88;4902171;29;20059;-71
2023/03/20 01:34:46;;;;;;;22.55;11.98;;;;;;;-145.50;100.00;65435.88;4903549;29;20048;-71
2023/03/20 01:37:17;;;;;;;20.43;11.27;;;;;;;-145.50;100.00;65435.88;4905617;29;20648;-71
2023/03/20 01:39:44;;;;;;;21.48;11.98;;;;;;;-145.50;100.00;65435.88;4906317;29;22052;-70
2023/03/20 01:42:14;;;;;;;22.75;12.02;;;;;;;-145.50;100.00;65435.88;4900188;29;20424;-71
2023/03/20 01:44:41;;;;;;;21.55;11.82;;;;;;;-145.50;100.00;65435.88;4910658;29;20056;-71
2023/03/20 01:47:16;;;;;;;21.10;11.05;;;;;;;-145.50;100.00;65435.88;4904366;29;20071;-71
2023/03/20 01:50:21;;;;;;;21.33;10.77;;;;;;;-145.50;100.00;65435.88;4909039;29;20051;-71
2023/03/20 01:52:52;;;;;;;21.98;10.23;;;;;;;-145.50;100.00;65435.88;4895880;29;20489;-71
2023/03/20 01:55:20;;;;;;;27.05;11.07;;;;;;;-145.50;100.00;65435.88;4905649;29;20052;-71
2023/03/20 01:57:49;;;;;;;22.13;10.97;;;;;;;-145.50;100.00;65435.88;4900778;29;20485;-70
2023/03/20 02:00:16;;;;;;;24.02;9.52;;;;;;;-145.50;100.00;65435.88;4910674;29;21099;-72
2023/03/20 02:02:45;;;;;;;22.13;10.43;;;;;;;-145.50;100.00;65435.88;4925097;29;20058;-72
2023/03/20 02:05:16;;;;;;;20.85;9.30;;;;;;;-145.50;100.00;65435.88;4901328;29;20135;-72
2023/03/20 02:07:47;;;;;;;24.25;9.50;;;;;;;-145.50;100.00;65435.88;4898430;29;20059;-72
2023/03/20 02:10:15;;;;;;;17.40;8.18;;;;;;;-145.50;100.00;65435.88;4903565;29;20051;-71
2023/03/20 02:12:42;;;;;;;19.00;9.63;;;;;;;-145.50;100.00;65435.88;4910734;29;20058;-72
2023/03/20 02:15:12;;;;;;;18.20;8.93;;;;;;;-145.50;100.00;65435.88;4904887;29;20072;-73
2023/03/20 02:17:38;;;;;;;18.75;9.48;;;;;;;-145.50;100.00;65435.88;4909324;29;20048;-73
2023/03/20 02:20:31;;;;;;;19.75;9.32;;;;;;;-145.50;100.00;65435.88;4906728;29;20047;-72
2023/03/20 02:23:45;;;;;;;18.55;9.05;;;;;;;-145.50;100.00;65435.88;4901648;29;20071;-72
2023/03/20 02:26:37;;;;;;;18.48;8.57;;;;;;;-145.50;100.00;65435.88;4908398;29;20135;-71
2023/03/20 02:29:35;;;;;;;18.85;8.10;;;;;;;-145.50;100.00;65435.88;4924001;29;20493;-72
2023/03/20 02:32:32;;;;;;;17.23;8.32;;;;;;;-145.50;100.00;65435.88;4917916;29;20063;-72
2023/03/20 02:35:20;;;;;;;13.50;6.78;;;;;;;-145.50;100.00;65435.88;4891606;29;20052;-71
2023/03/20 02:37:55;;;;;;;14.48;7.18;;;;;;;-145.50;100.00;65435.88;4916897;29;20156;-72
2023/03/20 02:40:43;;;;;;;15.90;6.00;;;;;;;-145.50;100.00;65435.88;4907119;29;20056;-72
2023/03/20 02:43:25;;;;;;;13.35;6.00;;;;;;;-145.50;100.00;65435.88;4906136;29;20135;-72
2023/03/20 02:45:58;;;;;;;12.88;6.53;;;;;;;-145.50;100.00;65435.88;4923479;29;20401;-72
2023/03/20 02:48:48;;;;;;;10.30;4.75;;;;;;;-145.50;100.00;65435.88;4904315;29;20052;-72
2023/03/20 02:51:25;;;;;;;9.80;5.05;;;;;;;-145.50;100.00;65435.88;4901180;29;20059;-72
2023/03/20 02:54:20;;;;;;;13.43;5.07;;;;;;;-145.50;100.00;65435.88;4899820;29;20489;-72
2023/03/20 02:57:04;;;;;;;9.45;4.05;;;;;;;-145.50;100.00;65435.88;4900947;29;20107;-72
2023/03/20 02:59:49;;;;;;;10.15;3.53;;;;;;;-145.50;100.00;65435.88;4905958;29;20048;-72
2023/03/20 03:02:22;;;;;;;8.88;3.53;;;;;;;-145.50;100.00;65435.88;4900014;29;20056;-72
2023/03/20 03:04:56;;;;;;;9.02;3.90;;;;;;;-145.50;100.00;65435.88;4907427;29;20052;-72
2023/03/20 03:07:26;;;;;;;8.52;3.92;;;;;;;-145.50;100.00;65435.88;4899483;29;20398;-72
2023/03/20 03:09:58;;;;;;;8.75;3.60;;;;;;;-145.50;100.00;65435.88;4923119;29;20048;-72
2023/03/20 03:12:33;;;;;;;9.00;3.72;;;;;;;-145.50;100.00;65435.88;4903164;29;20052;-71
2023/03/20 03:15:03;;;;;;;7.55;3.75;;;;;;;-145.50;100.00;65435.88;4907332;29;20764;-71
2023/03/20 03:17:35;;;;;;;9.85;3.90;;;;;;;-145.50;100.00;65435.88;4904964;29;20060;-71
2023/03/20 03:20:07;;;;;;;7.30;4.00;;;;;;;-145.50;100.00;65435.88;4904681;29;20151;-72
2023/03/20 03:22:35;;;;;;;11.75;4.82;;;;;;;-145.50;100.00;65435.88;4901834;29;20048;-72
2023/03/20 03:25:01;;;;;;;11.45;5.22;;;;;;;-145.50;100.00;65435.88;4903188;29;20052;-71
2023/03/20 03:27:40;;;;;;;10.25;4.78;;;;;;;-145.50;100.00;65435.88;4909310;29;20553;-72
2023/03/20 03:30:14;;;;;;;12.82;5.28;;;;;;;-145.50;100.00;65435.88;4897765;29;20056;-72
2023/03/20 03:33:04;;;;;;;13.13;5.78;;;;;;;-145.50;100.00;65435.88;4904909;29;20048;-72
2023/03/20 03:35:31;;;;;;;9.82;4.90;;;;;;;-145.50;100.00;65435.88;4899117;29;20056;-72
2023/03/20 03:38:02;;;;;;;12.23;6.25;;;;;;;-145.50;100.00;65435.88;4925995;29;20058;-72
2023/03/20 03:40:44;;;;;;;11.88;5.88;;;;;;;-145.50;100.00;65435.88;4912731;29;20056;-71
2023/03/20 03:43:39;;;;;;;12.30;5.43;;;;;;;-145.50;100.00;65435.88;4905360;29;20056;-71
2023/03/20 03:46:12;;;;;;;15.88;6.10;;;;;;;-145.50;100.00;65435.88;4900673;29;20052;-71
2023/03/20 03:48:44;;;;;;;12.60;6.30;;;;;;;-145.50;100.00;65435.88;4902621;29;20048;-71
2023/03/20 03:51:16;;;;;;;10.77;5.38;;;;;;;-145.50;100.00;65435.88;4911538;29;20192;-71
2023/03/20 03:53:51;;;;;;;11.00;5.68;;;;;;;-145.50;100.00;65435.88;4904550;29;20052;-71
2023/03/20 03:56:22;;;;;;;12.52;5.90;;;;;;;-145.50;100.00;65435.88;4908266;29;20048;-72
2023/03/20 03:58:55;;;;;;;12.60;5.82;;;;;;;-145.50;100.00;65435.88;4899769;29;20063;-71
2023/03/20 04:01:23;;;;;;;14.30;6.25;;;;;;;-145.50;100.00;65435.88;4912398;29;20048;-71
2023/03/20 04:03:55;;;;;;;13.67;6.23;;;;;;;-145.50;100.00;65435.88;4911706;29;20555;-71
2023/03/20 04:06:21;;;;;;;14.95;5.85;;;;;;;-145.50;100.00;65435.88;4906069;29;20056;-70
2023/03/20 04:08:48;;;;;;;17.30;7.05;;;;;;;-145.50;100.00;65435.88;4911847;29;20083;-71
2023/03/20 04:11:17;;;;;;;15.18;7.38;;;;;;;-145.50;100.00;65435.88;4900431;29;20048;-71
2023/03/20 04:13:46;;;;;;;20.23;8.95;;;;;;;-145.50;100.00;65435.88;4909277;29;20047;-71
2023/03/20 04:16:13;;;;;;;20.33;10.30;;;;;;;-145.50;100.00;65435.88;4904258;29;20052;-71
2023/03/20 04:18:40;;;;;;;20.98;9.30;;;;;;;-145.50;100.00;65435.88;4909742;29;20053;-71
2023/03/20 04:21:07;;;;;;;20.48;11.50;;;;;;;-145.50;100.00;65435.88;4912675;29;20052;-71
2023/03/20 04:23:33;;;;;;;19.15;10.45;;;;;;;-145.50;100.00;65435.88;4901434;29;20052;-71
2023/03/20 04:26:00;;;;;;;20.33;11.02;;;;;;;-145.50;100.00;65435.88;4906097;29;20064;-71
2023/03/20 04:28:27;;;;;;;23.25;10.43;;;;;;;-145.50;100.00;65435.88;4903344;29;20166;-70
2023/03/20 04:30:55;;;;;;;21.73;11.30;;;;;;;-145.50;100.00;65435.88;4910924;29;20048;-71
2023/03/20 04:33:23;;;;;;;21.83;10.98;;;;;;;-145.50;100.00;65435.88;4901326;29;20060;-71
2023/03/20 04:35:49;;;;;;;23.83;11.48;;;;;;;-145.50;100.00;65435.88;4908101;29;20060;-70
2023/03/20 04:38:17;;;;;;;21.63;11.20;;;;;;;-145.50;100.00;65435.88;4908827;29;20520;-71
2023/03/20 04:40:45;;;;;;;22.80;11.63;;;;;;;-145.50;100.00;65435.88;4886685;29;20055;-71
2023/03/20 04:43:13;;;;;;;22.65;11.02;;;;;;;-145.50;100.00;65435.88;4904845;29;20052;-71
2023/03/20 04:45:40;;;;;;;26.23;11.35;;;;;;;-145.50;100.00;65435.88;4903908;29;20525;-70
2023/03/20 04:48:07;;;;;;;23.88;11.43;;;;;;;-145.50;100.00;65435.88;4910475;29;20066;-71
2023/03/20 04:50:33;;;;;;;23.38;11.77;;;;;;;-145.50;100.00;65435.88;4906039;29;20040;-71
2023/03/20 04:53:00;;;;;;;25.27;11.05;;;;;;;-145.50;100.00;65435.88;4903013;29;20113;-71
2023/03/20 04:55:26;;;;;;;24.50;11.73;;;;;;;-145.50;100.00;65435.88;4908133;29;20048;-70
2023/03/20 04:57:53;;;;;;;24.70;11.30;;;;;;;-145.50;100.00;65435.88;4904407;29;20060;-71
2023/03/20 05:00:20;;;;;;;20.05;10.00;;;;;;;-145.50;100.00;65435.88;4911947;29;20067;-71
2023/03/20 05:02:46;;;;;;;24.20;10.93;;;;;;;-145.50;100.00;65435.88;4902053;29;20186;-70
2023/03/20 05:05:13;;;;;;;19.52;10.23;;;;;;;-145.50;100.00;65435.88;4905437;29;20056;-71
2023/03/20 05:07:39;;;;;;;21.33;11.40;;;;;;;-145.50;100.00;65435.88;4899386;29;20108;-71
2023/03/20 05:10:06;;;;;;;20.55;10.77;;;;;;;-145.50;100.00;65435.88;4909719;29;20055;-70
2023/03/20 05:12:33;;;;;;;24.70;10.50;;;;;;;-145.50;100.00;65435.88;4911782;29;20052;-70
2023/03/20 05:15:00;;;;;;;23.92;10.20;;;;;;;-145.50;100.00;65435.88;4904507;29;20056;-70
2023/03/20 05:17:26;;;;;;;16.92;9.27;;;;;;;-145.50;100.00;65435.88;4915650;29;20112;-70
2023/03/20 05:19:53;;;;;;;16.27;9.63;;;;;;;-145.50;100.00;65435.88;4901293;29;21271;-70
2023/03/20 05:22:20;;;;;;;17.88;8.80;;;;;;;-145.50;100.00;65435.88;4904701;29;20420;-70
2023/03/20 05:24:46;;;;;;;22.98;9.38;;;;;;;-145.50;100.00;65435.88;4904334;29;20097;-71
2023/03/20 05:27:13;;;;;;;22.42;7.40;;;;;;;-145.50;100.00;65435.88;4910141;29;20054;-71
2023/03/20 05:29:39;;;;;;;18.85;8.70;;;;;;;-145.50;100.00;65435.88;4907277;29;20132;-71
2023/03/20 05:32:06;;;;;;;15.90;7.53;;;;;;;-145.50;100.00;65435.88;4904932;29;20052;-71
2023/03/20 05:34:32;;;;;;;14.15;8.00;;;;;;;-145.50;100.00;65435.88;4904309;29;20052;-71
2023/03/20 05:36:59;;;;;;;15.63;8.57;;;;;;;-145.50;100.00;65435.88;4910626;29;20052;-71
2023/03/20 05:39:26;;;;;;;16.73;7.88;;;;;;;-145.50;100.00;65435.88;4910357;29;20135;-70
2023/03/20 05:41:52;;;;;;;16.23;7.47;;;;;;;-145.50;100.00;65435.88;4913029;29;20153;-71
2023/03/20 05:44:19;;;;;;;25.58;8.95;;;;;;;-145.50;100.00;65435.88;4906139;29;20417;-71
2023/03/20 05:46:45;;;;;;;19.10;8.25;;;;;;;-145.50;100.00;65435.88;4903993;29;20044;-71
2023/03/20 05:49:12;;;;;;;18.33;8.27;;;;;;;-145.50;100.00;65435.88;4900347;29;20063;-71
2023/03/20 05:51:38;;;;;;;20.85;8.05;;;;;;;-145.50;100.00;65435.88;4909208;29;20048;-71
2023/03/20 05:54:05;;;;;;;16.65;8.70;;;;;;;-145.50;100.00;65435.88;4904351;29;20060;-71
2023/03/20 05:56:32;;;;;;;21.50;8.77;;;;;;;-145.50;100.00;65435.88;4909889;29;20071;-71
2023/03/20 05:58:58;;;;;;;23.20;9.23;;;;;;;-145.50;100.00;65435.88;4910597;29;20494;-71
2023/03/20 06:01:25;;;;;;;16.63;8.43;;;;;;;-145.50;100.00;65435.88;4898974;29;20056;-71
2023/03/20 06:03:51;;;;;;;21.10;9.18;;;;;;;-145.50;100.00;65435.88;4907140;29;20937;-71
2023/03/20 06:06:18;;;;;;;19.42;8.38;;;;;;;-145.50;100.00;65435.88;4905396;29;20052;-71
2023/03/20 06:08:45;;;;;;;20.38;8.65;;;;;;;-145.50;100.00;65435.88;4908957;29;20536;-71
2023/03/20 06:11:12;;;;;;;15.23;8.25;;;;;;;-145.50;100.00;65435.88;4901332;29;20091;-72
2023/03/20 06:13:39;;;;;;;16.77;8.23;;;;;;;-145.50;100.00;65435.88;4901944;29;20048;-72
2023/03/20 06:16:06;;;;;;;15.32;8.82;;;;;;;-145.50;100.00;65435.88;4910640;29;20486;-71
2023/03/20 06:18:32;;;;;;;16.20;7.50;;;;;;;-145.50;100.00;65435.88;4905028;29;20047;-72
2023/03/20 06:21:00;;;;;;;18.65;7.70;;;;;;;-145.50;100.00;65435.88;4910256;29;20044;-72
2023/03/20 06:23:27;;;;;;;15.88;8.75;;;;;;;-145.50;100.00;65435.88;4903213;29;20060;-74
2023/03/20 06:25:54;;;;;;;15.32;8.20;;;;;;;-145.50;100.00;65435.88;4909220;29;20107;-71
2023/03/20 06:28:20;;;;;;;16.92;9.13;;;;;;;-145.50;100.00;65435.88;4902908;29;20158;-72
2023/03/20 06:30:52;;;;;;;16.85;8.20;;;;;;;-145.50;100.00;65435.88;4897351;29;20175;-72
2023/03/20 06:33:18;;;;;;;16.60;9.05;;;;;;;-145.50;100.00;65435.88;4910057;29;20064;-70
2023/03/20 06:35:45;;;;;;;21.75;8.40;;;;;;;-145.50;100.00;65435.88;4906490;29;20067;-72
2023/03/20 06:38:13;;;;;;;19.27;7.93;;;;;;;-145.50;100.00;65435.88;4909362;29;20066;-72
2023/03/20 06:40:41;;;;;;;16.30;8.40;;;;;;;-145.50;100.00;65435.88;4901204;29;20079;-71
2023/03/20 06:43:11;;;;;;;16.95;7.88;;;;;;;-145.50;100.00;65435.88;4909100;29;20064;-72
2023/03/20 06:45:38;;;;;;;16.08;7.90;;;;;;;-145.50;100.00;65435.88;4898871;29;20086;-72
2023/03/20 06:48:06;;;;;;;17.00;8.18;;;;;;;-145.50;100.00;65435.88;4907438;29;20062;-72
2023/03/20 06:50:32;;;;;;;19.85;8.52;;;;;;;-145.50;100.00;65435.88;4901614;29;20417;-70
2023/03/20 06:52:59;;;;;;;15.98;7.85;;;;;;;-145.50;100.00;65435.88;4903183;29;20067;-72
2023/03/20 06:55:26;;;;;;;20.42;8.38;;;;;;;-145.50;100.00;65435.88;4910472;29;20051;-72
2023/03/20 06:57:52;;;;;;;16.00;7.85;;;;;;;-145.50;100.00;65435.88;4896196;29;20068;-72
2023/03/20 07:00:20;;;;;;;17.83;8.07;;;;;;;-145.50;100.00;65435.88;4906741;29;20044;-72
2023/03/20 07:02:47;;;;;;;15.90;8.60;;;;;;;-145.50;100.00;65435.88;4909043;29;20472;-72
2023/03/20 07:05:14;;;;;;;18.00;9.15;;;;;;;-145.50;100.00;65435.88;4891115;29;20523;-72
2023/03/20 07:07:41;;;;;;;16.58;8.23;;;;;;;-145.50;100.00;65435.88;4908397;29;20394;-72
2023/03/20 07:10:08;;;;;;;20.83;8.10;;;;;;;-145.50;100.00;65435.88;4898199;29;20063;-71
2023/03/20 07:12:35;;;;;;;20.02;8.35;;;;;;;-145.50;100.00;65435.88;4903340;29;20054;-71
2023/03/20 07:15:02;;;;;;;16.33;7.55;;;;;;;-145.50;100.00;65435.88;4901029;29;20403;-71
2023/03/20 07:17:28;;;;;;;17.35;8.07;;;;;;;-145.50;100.00;65435.88;4908824;29;20166;-71
2023/03/20 07:19:55;;;;;;;14.20;7.68;;;;;;;-145.50;100.00;65435.88;4907381;29;20056;-71
2023/03/20 07:22:27;;;;;;;16.65;7.97;;;;;;;-145.50;100.00;65435.88;4903235;29;20052;-72
2023/03/20 07:24:53;;;;;;;14.50;7.35;;;;;;;-145.50;100.00;65435.88;4906694;29;20124;-72
2023/03/20 07:27:21;;;;;;;17.33;7.30;;;;;;;-145.50;100.00;65435.88;4902287;29;20406;-71
2023/03/20 07:29:47;;;;;;;16.88;7.50;;;;;;;-145.50;100.00;65435.88;4904302;29;20063;-71
2023/03/20 07:32:15;;;;;;;17.88;7.72;;;;;;;-145.50;100.00;65435.88;4902998;29;20151;-71
2023/03/20 07:34:42;;;;;;;17.42;7.82;;;;;;;-145.50;100.00;65435.88;4926004;29;20481;-71
2023/03/20 07:37:09;;;;;;;19.30;7.57;;;;;;;-145.50;100.00;65435.88;4910636;29;20067;-72
2023/03/20 07:39:36;;;;;;;16.65;8.02;;;;;;;-145.50;100.00;65435.88;4900406;29;20059;-72
2023/03/20 07:42:02;;;;;;;20.48;8.13;;;;;;;-145.50;100.00;65435.88;4907496;29;20060;-71
2023/03/20 07:44:29;;;;;;;15.77;8.10;;;;;;;-145.50;100.00;65435.88;4904975;29;20056;-72
2023/03/20 07:46:55;;;;;;;16.17;7.32;;;;;;;-145.50;100.00;65435.88;4911108;29;20565;-71
2023/03/20 07:49:22;;;;;;;15.73;7.43;;;;;;;-145.50;100.00;65435.88;4905402;29;20044;-72
2023/03/20 07:51:50;;;;;;;15.57;7.18;;;;;;;-145.50;100.00;65435.88;4920415;29;20647;-72
2023/03/20 07:54:16;;;;;;;17.75;8.07;;;;;;;-145.50;100.00;65435.88;4905536;29;20147;-71
2023/03/20 07:56:43;;;;;;;17.05;7.50;;;;;;;-145.50;100.00;65435.88;4902945;29;20147;-70
2023/03/20 07:59:11;;;;;;;12.95;6.90;;;;;;;-145.50;100.00;65435.88;4909484;29;20075;-72
2023/03/20 08:01:37;;;;;;;16.10;7.22;;;;;;;-145.50;100.00;65435.88;4903943;29;20064;-72
2023/03/20 08:04:04;;;;;;;14.50;7.20;;;;;;;-145.50;100.00;65435.88;4912359;29;20060;-72
2023/03/20 08:06:31;;;;;;;14.55;6.53;;;;;;;-145.50;100.00;65435.88;4908084;29;20048;-73
2023/03/20 08:08:58;;;;;;;15.48;7.38;;;;;;;-145.50;100.00;65435.88;4901391;29;20064;-72
2023/03/20 08:11:24;;;;;;;14.88;6.60;;;;;;;-145.50;100.00;65435.88;4912265;29;20091;-73
2023/03/20 08:13:51;;;;;;;17.77;6.90;;;;;;;-145.50;100.00;65435.88;4898887;29;20469;-72
2023/03/20 08:16:18;;;;;;;21.92;7.50;;;;;;;-145.50;100.00;65435.88;4910861;29;20048;-72
2023/03/20 08:18:44;;;;;;;17.70;6.95;;;;;;;-145.50;100.00;65435.88;4906772;29;20067;-73
2023/03/20 08:21:11;;;;;;;12.05;5.80;;;;;;;-145.50;100.00;65435.88;4906363;29;20060;-74
2023/03/20 08:23:38;;;;;;;15.70;6.85;;;;;;;-145.50;100.00;65435.88;4910365;29;20131;-74
2023/03/20 08:26:04;;;;;;;13.63;6.35;;;;;;;-145.50;100.00;65435.88;4905095;29;20067;-73
2023/03/20 08:28:31;;;;;;;12.60;6.60;;;;;;;-145.50;100.00;65435.88;4908112;29;20091;-73
2023/03/20 08:31:12;;;;;;;13.93;5.95;;;;;;;-145.50;100.00;65435.88;4908626;29;20152;-74
2023/03/20 08:33:39;;;;;;;11.27;5.72;;;;;;;-145.50;100.00;65435.88;4906892;29;20355;-74
2023/03/20 08:36:06;;;;;;;13.55;5.93;;;;;;;-145.50;100.00;65435.88;4913491;29;20053;-73
2023/03/20 08:38:33;;;;;;;14.30;6.32;;;;;;;-145.50;100.00;65435.88;4909686;29;20718;-73
2023/03/20 08:41:00;;;;;;;15.75;6.20;;;;;;;-145.50;100.00;65435.88;4905611;29;20108;-73
2023/03/20 08:43:26;;;;;;;14.27;6.10;;;;;;;-145.50;100.00;65435.88;4906848;29;20054;-73
2023/03/20 08:45:53;;;;;;;11.77;6.40;;;;;;;-145.50;100.00;65435.88;4927198;29;20064;-73
2023/03/20 08:48:20;;;;;;;18.48;6.38;;;;;;;-145.50;100.00;65435.88;4899173;29;20146;-73
2023/03/20 08:50:47;;;;;;;14.45;6.82;;;;;;;-145.50;100.00;65435.88;4909977;29;20055;-74
2023/03/20 08:53:13;;;;;;;15.40;6.00;;;;;;;-145.50;100.00;65435.88;4918638;29;20055;-73
2023/03/20 08:55:40;;;;;;;16.80;6.00;;;;;;;-145.50;100.00;65435.88;4909309;29;20091;-73
2023/03/20 08:58:07;;;;;;;14.43;6.05;;;;;;;-145.50;100.00;65435.88;4909374;29;20478;-72
2023/03/20 09:00:33;;;;;;;17.48;6.47;;;;;;;-145.50;100.00;65435.88;4901429;29;20071;-73
2023/03/20 09:03:00;;;;;;;14.82;5.97;;;;;;;-145.50;100.00;65435.88;4921824;29;20406;-73
2023/03/20 09:05:27;;;;;;;13.90;5.80;;;;;;;-145.50;100.00;65435.88;4906860;29;20139;-73
2023/03/20 09:07:53;;;;;;;14.88;5.47;;;;;;;-145.50;100.00;65435.88;4910159;29;20143;-73
2023/03/20 09:10:21;;;;;;;12.40;5.65;;;;;;;-145.50;100.00;65435.88;4905565;29;20062;-73
2023/03/20 09:12:47;;;;;;;11.75;5.15;;;;;;;-145.50;100.00;65435.88;4907843;29;20482;-72
2023/03/20 09:15:14;;;;;;;14.45;5.80;;;;;;;-145.50;100.00;65435.88;4907446;29;20484;-72
2023/03/20 09:17:40;;;;;;;12.70;5.50;;;;;;;-145.50;100.00;65435.88;4916865;29;20058;-72
2023/03/20 09:20:07;;;;;;;14.73;6.05;;;;;;;-145.50;100.00;65435.88;4911019;29;20044;-72
2023/03/20 09:22:34;;;;;;;12.13;5.15;;;;;;;-145.50;100.00;65435.88;4903818;28;20374;-73
2023/03/20 09:25:00;;;;;;;12.52;5.20;;;;;;;-145.50;100.00;65435.88;4910749;29;20048;-72
2023/03/20 09:27:27;;;;;;;11.18;4.85;;;;;;;-145.50;100.00;65435.88;4899568;29;20060;-73
2023/03/20 09:29:54;;;;;;;9.48;4.60;;;;;;;-145.50;100.00;65435.88;4905805;29;20104;-72
2023/03/20 09:32:20;;;;;;;10.25;4.70;;;;;;;-145.50;100.00;65435.88;4907245;29;20056;-72
2023/03/20 09:34:47;;;;;;;11.70;4.60;;;;;;;-145.50;100.00;65435.88;4920302;29;20139;-71
2023/03/20 09:37:13;;;;;;;13.18;4.28;;;;;;;-145.50;100.00;65435.88;4914656;29;20062;-72
2023/03/20 09:39:40;;;;;;;10.57;4.07;;;;;;;-145.50;100.00;65435.88;4902096;29;20063;-72
2023/03/20 09:42:42;;;;;;;14.27;4.40;;;;;;;-145.50;100.00;65435.88;4911590;29;20468;-72
2023/03/20 09:45:59;;;;;;;13.30;5.47;;;;;;;-145.50;100.00;65435.88;4880723;29;20050;-71
2023/03/20 09:48:31;;;;;;;15.40;5.20;;;;;;;-145.50;100.00;65435.88;4830149;29;20118;-72
2023/03/20 09:51:17;;;;;;;12.73;4.40;;;;;;;-145.50;100.00;65435.88;4887135;29;20071;-72
2023/03/20 09:53:49;;;;;;;8.10;4.00;;;;;;;-145.50;100.00;65435.88;4906643;29;20052;-72
2023/03/20 09:56:22;;;;;;;11.27;4.35;;;;;;;-145.50;100.00;65435.88;4899010;29;20060;-72
2023/03/20 09:58:55;;;;;;;10.40;4.20;;;;;;;-145.50;100.00;65435.88;4907196;29;20075;-72
2023/03/20 10:01:26;;;;;;;16.45;4.93;;;;;;;-145.50;100.00;65435.88;4907973;29;20048;-72
2023/03/20 10:03:57;;;;;;;6.38;3.78;;;;;;;-145.50;100.00;65435.88;4905110;29;20508;-72
2023/03/20 10:06:24;;;;;;;10.38;4.75;;;;;;;-145.50;100.00;65435.88;4910326;29;20497;-72
2023/03/20 10:08:50;;;;;;;13.95;4.80;;;;;;;-145.50;100.00;65435.88;4900314;29;20441;-72
2023/03/20 10:11:42;;;;;;;10.77;5.18;;;;;;;-145.50;100.00;65435.88;4904281;29;20044;-72
2023/03/20 10:14:27;;;;;;;15.38;5.75;;;;;;;-145.50;100.00;65435.88;4913506;29;20056;-72
2023/03/20 10:17:18;;;;;;;14.88;6.13;;;;;;;-145.50;100.00;65435.88;4917277;29;20062;-72
2023/03/20 10:19:52;;;;;;;13.60;5.40;;;;;;;-145.50;100.00;65435.88;4904238;29;20693;-72
2023/03/20 10:22:29;;;;;;;15.77;5.18;;;;;;;-145.50;100.00;65435.88;4905445;29;20056;-72
2023/03/20 10:25:02;;;;;;;12.00;5.40;;;;;;;-145.50;100.00;65435.88;4897707;29;20060;-72
2023/03/20 10:27:34;;;;;;;16.63;6.35;;;;;;;-145.50;100.00;65435.88;4921119;29;20048;-72
2023/03/20 10:30:25;;;;;;;12.52;5.68;;;;;;;-145.50;100.00;65435.88;4910414;29;20052;-72
2023/03/20 10:33:36;;;;;;;9.32;4.43;;;;;;;-145.50;100.00;65435.88;4905693;29;20492;-73
2023/03/20 10:36:34;;;;;;;12.90;5.55;;;;;;;-145.50;100.00;65435.88;4911777;29;20067;-72
2023/03/20 10:39:20;;;;;;;13.57;5.43;;;;;;;-145.50;100.00;65435.88;4893881;29;20063;-73
2023/03/20 10:41:53;;;;;;;12.25;5.10;;;;;;;-145.50;100.00;65435.88;4909618;29;20076;-73
2023/03/20 10:44:32;;;;;;;11.25;4.40;;;;;;;-145.50;100.00;65435.88;4902732;29;20849;-73
2023/03/20 10:47:00;;;;;;;;;;;;;;;-145.50;100.00;65435.88;4908987;29;20059;-73
2023/03/20 10:49:38;;;;;;;7.82;4.13;;;;;;;-145.50;100.00;65435.88;4898380;29;19923;-72
2023/03/20 10:52:13;;;;;;;9.40;3.53;;;;;;;-145.50;100.00;65435.88;4920458;29;20048;-73
2023/03/20 10:54:42;;;;;;;9.25;3.67;;;;;;;-145.50;100.00;65435.88;4910494;28;20060;-77
2023/03/20 10:57:32;;;;;;;9.48;3.30;;;;;;;-145.50;100.00;65435.88;4909812;29;20066;-73
2023/03/20 10:59:59;;;;;;;7.43;3.63;;;;;;;-145.50;100.00;65435.88;4903287;29;20103;-75
2023/03/20 11:02:30;;;;;;;7.18;3.33;;;;;;;-145.50;100.00;65435.88;4910388;29;20051;-74
2023/03/20 11:05:29;;;;;;;8.82;3.72;;;;;;;-145.50;100.00;65435.88;4905915;29;22294;-73
2023/03/20 11:08:02;;;;;;;10.15;3.88;;;;;;;-145.50;100.00;65435.88;4905402;29;20324;-73
2023/03/20 11:10:33;;;;;;;8.68;3.30;;;;;;;-145.50;100.00;65435.88;4914268;29;20087;-73
2023/03/20 11:13:35;;;;;;;8.65;3.28;;;;;;;-145.50;100.00;65435.88;4905068;29;20048;-74
2023/03/20 11:16:21;;;;;;;9.82;3.75;;;;;;;-145.50;100.00;65435.88;4906565;29;20425;-73
2023/03/20 11:18:49;;;;;;;10.57;3.70;;;;;;;-145.50;100.00;65435.88;4899988;29;20060;-74
2023/03/20 11:21:25;;;;;;;8.80;3.72;;;;;;;-145.50;100.00;65435.88;4910628;29;20048;-74